Terminal Aerodrome Forecast
Issued by NWS

Home | Current Version | Previous Version | Text Only | Print | Product List | Glossary On
Versions: 1 2 3 4 5 6 7 8 9 10 11 12 13 14 15 16 17 18
000
FTUS41 KBTV 212320
TAFSLK
TAF
KSLK 212320Z 2200/2224 22004KT P6SM FEW130
     FM220600 00000KT 4SM BR SCT100
      TEMPO 2207/2211 1SM BR
     FM221300 19007KT P6SM SCT110
     FM221500 20012G18KT P6SM VCSH BKN150
     FM221700 21014G23KT P6SM VCTS BKN045CB
      TEMPO 2218/2222 4SM TSRA BR BKN025CB=

USA.gov is the U.S. government's official web portal to all federal, state and local government web resources and services.